createdAt,value
2018-02-04T00:09:46.300Z,100686
2018-02-04T00:12:13.535Z,100693
2018-02-04T00:14:40.809Z,100696
2018-02-04T00:17:08.046Z,100698
2018-02-04T00:19:35.277Z,100698
2018-02-04T00:22:02.510Z,100701
2018-02-04T00:24:29.750Z,100700
2018-02-04T00:26:57.002Z,100706
2018-02-04T00:29:24.236Z,100707
2018-02-04T00:31:51.467Z,100712
2018-02-04T00:36:52.487Z,100715
2018-02-04T00:39:19.727Z,100717
2018-02-04T00:41:46.965Z,100716
2018-02-04T00:44:14.205Z,100715
2018-02-04T00:46:41.470Z,100714
2018-02-04T00:49:08.711Z,100719
2018-02-04T00:51:35.942Z,100720
2018-02-04T00:54:03.177Z,100727
2018-02-04T00:56:30.409Z,100721
2018-02-04T00:58:57.667Z,100723
2018-02-04T01:01:24.918Z,100724
2018-02-04T01:03:52.141Z,100723
2018-02-04T01:06:19.389Z,100726
2018-02-04T01:08:46.622Z,100728
2018-02-04T01:11:13.857Z,100725
2018-02-04T01:13:41.115Z,100729
2018-02-04T01:16:08.345Z,100731
2018-02-04T01:18:35.577Z,100736
2018-02-04T01:21:02.813Z,100739
2018-02-04T01:23:30.049Z,100738
2018-02-04T01:25:57.282Z,100739
2018-02-04T01:28:24.712Z,100736
2018-02-04T01:30:51.949Z,100739
2018-02-04T01:33:19.189Z,100743
2018-02-04T01:35:46.426Z,100740
2018-02-04T01:38:13.663Z,100744
2018-02-04T01:40:41.904Z,100745
2018-02-04T01:43:09.137Z,100749
2018-02-04T01:45:36.365Z,100749
2018-02-04T01:48:07.549Z,100748
2018-02-04T01:50:34.785Z,100749
2018-02-04T01:53:02.027Z,100750
2018-02-04T01:55:29.257Z,100749
2018-02-04T01:57:56.523Z,100749
2018-02-04T02:00:23.751Z,100752
2018-02-04T02:02:50.987Z,100753
2018-02-04T02:05:18.221Z,100752
2018-02-04T02:07:45.460Z,100753
2018-02-04T02:10:12.698Z,100757
2018-02-04T02:12:39.935Z,100759
2018-02-04T02:15:07.166Z,100764
2018-02-04T02:17:34.397Z,100765
2018-02-04T02:20:01.631Z,100768
2018-02-04T02:22:29.074Z,100766
2018-02-04T02:24:56.305Z,100770
2018-02-04T02:27:23.545Z,100773
2018-02-04T02:29:50.774Z,100773
2018-02-04T02:32:18.018Z,100776
2018-02-04T02:34:45.538Z,100782
2018-02-04T02:37:12.770Z,100784
2018-02-04T02:39:40.005Z,100791
2018-02-04T02:42:07.237Z,100799
2018-02-04T02:44:34.469Z,100799
2018-02-04T02:47:01.737Z,100808
2018-02-04T02:49:28.974Z,100816
2018-02-04T02:51:56.213Z,100813
2018-02-04T02:54:23.451Z,100815
2018-02-04T02:56:50.687Z,100817
2018-02-04T02:59:18.463Z,100820
2018-02-04T03:01:45.692Z,100822
2018-02-04T03:04:12.922Z,100825
2018-02-04T03:06:40.153Z,100828
2018-02-04T03:09:07.385Z,100830
2018-02-04T03:11:34.636Z,100836
2018-02-04T03:14:02.525Z,100835
2018-02-04T03:16:29.793Z,100834
2018-02-04T03:18:57.045Z,100838
2018-02-04T03:21:24.272Z,100854
2018-02-04T03:23:51.508Z,100860
2018-02-04T03:26:18.743Z,100862
2018-02-04T03:28:45.976Z,100863
2018-02-04T03:31:13.203Z,100866
2018-02-04T03:33:40.443Z,100871
2018-02-04T03:36:07.674Z,100878
2018-02-04T03:38:35.618Z,100887
2018-02-04T03:41:02.843Z,100891
2018-02-04T03:43:30.071Z,100899
2018-02-04T03:45:57.317Z,100908
2018-02-04T03:48:24.545Z,100910
2018-02-04T03:50:51.809Z,100916
2018-02-04T03:53:19.042Z,100923
2018-02-04T03:55:46.269Z,100926
2018-02-04T03:58:13.498Z,100928
2018-02-04T04:00:40.729Z,100931
2018-02-04T04:03:07.983Z,100930
2018-02-04T04:05:35.214Z,100934
2018-02-04T04:08:02.453Z,100943
2018-02-04T04:10:29.677Z,100949
2018-02-04T04:12:56.913Z,100952
2018-02-04T04:15:24.171Z,100955
2018-02-04T04:17:51.401Z,100958
2018-02-04T04:20:18.624Z,100967
2018-02-04T04:22:45.860Z,100982
2018-02-04T04:25:13.097Z,100986
2018-02-04T04:27:40.356Z,100986
2018-02-04T04:30:07.593Z,100981
2018-02-04T04:32:34.831Z,100993
2018-02-04T04:35:02.079Z,100998
2018-02-04T04:37:29.313Z,101004
2018-02-04T04:39:56.575Z,101010
2018-02-04T04:42:23.806Z,101019
2018-02-04T04:44:51.033Z,101032
2018-02-04T04:47:18.274Z,101040
2018-02-04T04:49:46.712Z,101046
2018-02-04T04:52:13.972Z,101046
2018-02-04T04:54:41.201Z,101051
2018-02-04T04:57:08.442Z,101056
2018-02-04T04:59:35.672Z,101068
2018-02-04T05:02:02.927Z,101078
2018-02-04T05:04:30.340Z,101086
2018-02-04T05:06:57.577Z,101088
2018-02-04T05:09:24.814Z,101091
2018-02-04T05:11:52.093Z,101091
2018-02-04T05:14:19.325Z,101095
2018-02-04T05:16:46.559Z,101101
2018-02-04T05:19:14.942Z,101104
2018-02-04T05:21:42.162Z,101096
2018-02-04T05:24:09.400Z,101104
2018-02-04T05:26:36.633Z,101112
2018-02-04T05:29:03.865Z,101119
2018-02-04T05:31:31.161Z,101120
2018-02-04T05:33:58.408Z,101125
2018-02-04T05:36:25.633Z,101129
2018-02-04T05:38:52.873Z,101130
2018-02-04T05:41:20.189Z,101139
2018-02-04T05:43:47.428Z,101153
2018-02-04T05:46:14.693Z,101162
2018-02-04T05:48:41.930Z,101170
2018-02-04T05:51:09.166Z,101171
2018-02-04T05:53:36.389Z,101171
2018-02-04T05:56:03.623Z,101177
2018-02-04T05:58:30.862Z,101189
2018-02-04T06:00:58.183Z,101200
2018-02-04T06:03:25.422Z,101206
2018-02-04T06:05:52.655Z,101213
2018-02-04T06:08:19.873Z,101219
2018-02-04T06:10:47.110Z,101226
2018-02-04T06:13:14.533Z,101230
2018-02-04T06:15:41.770Z,101237
2018-02-04T06:18:09.008Z,101243
2018-02-04T06:20:36.237Z,101253
2018-02-04T06:23:03.480Z,101267
2018-02-04T06:25:30.709Z,101269
2018-02-04T06:27:57.978Z,101274
2018-02-04T06:30:25.213Z,101276
2018-02-04T06:32:52.445Z,101278
2018-02-04T06:35:19.681Z,101284
2018-02-04T06:37:46.925Z,101289
2018-02-04T06:40:14.193Z,101301
2018-02-04T06:42:41.421Z,101308
2018-02-04T06:45:08.648Z,101308
2018-02-04T06:47:35.880Z,101314
2018-02-04T06:50:03.104Z,101319
2018-02-04T06:52:30.382Z,101319
2018-02-04T06:54:57.617Z,101328
2018-02-04T06:57:24.862Z,101333
2018-02-04T06:59:52.084Z,101336
2018-02-04T07:02:19.314Z,101349
2018-02-04T07:04:46.561Z,101359
2018-02-04T07:07:13.790Z,101363
2018-02-04T07:09:41.060Z,101372
2018-02-04T07:12:08.252Z,101379
2018-02-04T07:14:35.481Z,101386
2018-02-04T07:17:02.982Z,101393
2018-02-04T07:19:30.226Z,101388
2018-02-04T07:21:57.453Z,101399
2018-02-04T07:24:24.691Z,101396
2018-02-04T07:26:51.920Z,101399
2018-02-04T07:29:19.341Z,101404
2018-02-04T07:31:46.580Z,101406
2018-02-04T07:34:13.813Z,101415
2018-02-04T07:36:41.104Z,101415
2018-02-04T07:39:08.332Z,101425
2018-02-04T07:41:35.568Z,101433
2018-02-04T07:44:02.809Z,101433
2018-02-04T07:46:30.045Z,101440
2018-02-04T07:48:57.273Z,101442
2018-02-04T07:51:24.504Z,101441
2018-02-04T07:53:51.733Z,101448
2018-02-04T07:56:19.002Z,101451
2018-02-04T07:58:46.229Z,101456
2018-02-04T08:01:13.469Z,101460
2018-02-04T08:03:40.696Z,101461
2018-02-04T08:06:08.026Z,101460
2018-02-04T08:08:35.579Z,101462
2018-02-04T08:11:02.809Z,101468
2018-02-04T08:13:30.050Z,101476
2018-02-04T08:15:57.288Z,101480
2018-02-04T08:18:24.517Z,101485
2018-02-04T08:20:52.047Z,101486
2018-02-04T08:23:19.286Z,101491
2018-02-04T08:25:46.513Z,101492
2018-02-04T08:28:13.755Z,101493
2018-02-04T08:30:40.977Z,101496
2018-02-04T08:33:08.241Z,101499
2018-02-04T08:35:35.475Z,101502
2018-02-04T08:38:02.708Z,101505
2018-02-04T08:40:29.937Z,101505
2018-02-04T08:42:57.173Z,101504
2018-02-04T08:45:24.409Z,101507
2018-02-04T08:47:51.624Z,101513
2018-02-04T08:50:18.857Z,101518
2018-02-04T08:52:46.091Z,101519
2018-02-04T08:55:13.336Z,101521
2018-02-04T08:57:40.820Z,101529
2018-02-04T09:00:08.041Z,101529
2018-02-04T09:02:35.279Z,101530
2018-02-04T09:05:02.505Z,101531
2018-02-04T09:07:29.741Z,101535
2018-02-04T09:09:57.000Z,101538
2018-02-04T09:12:24.337Z,101543
2018-02-04T09:14:51.564Z,101545
2018-02-04T09:17:18.789Z,101555
2018-02-04T09:19:46.018Z,101558
2018-02-04T09:22:13.269Z,101558
2018-02-04T09:24:40.508Z,101558
2018-02-04T09:27:07.746Z,101563
2018-02-04T09:29:34.967Z,101566
2018-02-04T09:32:02.186Z,101565
2018-02-04T09:34:29.450Z,101566
2018-02-04T09:36:56.665Z,101573
2018-02-04T09:39:23.896Z,101579
2018-02-04T09:41:51.151Z,101582
2018-02-04T09:44:18.380Z,101582
2018-02-04T09:46:45.607Z,101587
2018-02-04T09:49:12.834Z,101588
2018-02-04T09:51:40.065Z,101594
2018-02-04T09:54:07.303Z,101597
2018-02-04T09:56:34.537Z,101597
2018-02-04T09:59:01.883Z,101603
2018-02-04T10:01:29.100Z,101608
2018-02-04T10:03:56.333Z,101613
2018-02-04T10:06:23.569Z,101615
2018-02-04T10:08:50.797Z,101613
2018-02-04T10:11:18.049Z,101614
2018-02-04T10:13:45.277Z,101620
2018-02-04T10:16:12.493Z,101624
2018-02-04T10:18:39.725Z,101627
2018-02-04T10:21:06.949Z,101627
2018-02-04T10:23:34.193Z,101632
2018-02-04T10:26:01.421Z,101636
2018-02-04T10:28:28.653Z,101642
2018-02-04T10:30:56.213Z,101640
2018-02-04T10:33:23.433Z,101644
2018-02-04T10:35:50.713Z,101644
2018-02-04T10:38:18.026Z,101644
2018-02-04T10:40:45.678Z,101642
2018-02-04T10:43:13.437Z,101648
2018-02-04T10:45:40.790Z,101644
2018-02-04T10:48:08.045Z,101651
2018-02-04T10:50:35.279Z,101653
2018-02-04T10:53:02.595Z,101653
